sensor_id;sensor_type;location;lat;lon;timestamp;temperature;humidity
20438;DHT22;65664;50.380;8.812;2023-06-10T19:56:16;24.10;2.80
20438;DHT22;65664;50.380;8.812;2023-06-10T19:58:47;24.00;2.90
20438;DHT22;65664;50.380;8.812;2023-06-10T20:01:16;24.10;2.50
20438;DHT22;65664;50.380;8.812;2023-06-10T20:03:52;24.10;2.50
20438;DHT22;65664;50.380;8.812;2023-06-10T20:06:19;24.10;2.50
20438;DHT22;65664;50.380;8.812;2023-06-10T20:08:46;24.20;2.30
20438;DHT22;65664;50.380;8.812;2023-06-10T20:11:13;24.30;1.20
20438;DHT22;65664;50.380;8.812;2023-06-10T20:13:41;24.30;1.30
20438;DHT22;65664;50.380;8.812;2023-06-10T20:16:08;24.30;1.60
20438;DHT22;65664;50.380;8.812;2023-06-10T20:18:35;24.30;1.60
20438;DHT22;65664;50.380;8.812;2023-06-10T20:21:03;24.20;1.50
20438;DHT22;65664;50.380;8.812;2023-06-10T20:23:30;24.30;1.10
20438;DHT22;65664;50.380;8.812;2023-06-10T20:25:57;24.40;1.00
20438;DHT22;65664;50.380;8.812;2023-06-10T20:28:24;24.30;1.60
20438;DHT22;65664;50.380;8.812;2023-06-10T20:30:52;24.20;1.80
20438;DHT22;65664;50.380;8.812;2023-06-10T20:33:19;24.20;1.80
20438;DHT22;65664;50.380;8.812;2023-06-10T20:35:46;24.20;1.60
20438;DHT22;65664;50.380;8.812;2023-06-10T20:38:12;24.20;1.30
20438;DHT22;65664;50.380;8.812;2023-06-10T20:40:39;24.30;1.30
20438;DHT22;65664;50.380;8.812;2023-06-10T20:43:06;24.30;1.30
20438;DHT22;65664;50.380;8.812;2023-06-10T20:45:33;24.20;1.30
20438;DHT22;65664;50.380;8.812;2023-06-10T20:48:01;24.20;1.50
20438;DHT22;65664;50.380;8.812;2023-06-10T20:50:28;24.20;2.60
20438;DHT22;65664;50.380;8.812;2023-06-10T20:52:57;24.20;1.60
20438;DHT22;65664;50.380;8.812;2023-06-10T20:55:23;24.10;1.80
20438;DHT22;65664;50.380;8.812;2023-06-10T20:57:50;23.90;2.80
20438;DHT22;65664;50.380;8.812;2023-06-10T21:00:20;23.70;3.80
20438;DHT22;65664;50.380;8.812;2023-06-10T21:02:48;23.50;4.70
20438;DHT22;65664;50.380;8.812;2023-06-10T21:05:16;23.60;4.80
20438;DHT22;65664;50.380;8.812;2023-06-10T21:07:43;23.70;4.60
20438;DHT22;65664;50.380;8.812;2023-06-10T21:10:12;23.80;4.30
20438;DHT22;65664;50.380;8.812;2023-06-10T21:12:40;23.90;3.90
20438;DHT22;65664;50.380;8.812;2023-06-10T21:15:07;23.90;3.60
20438;DHT22;65664;50.380;8.812;2023-06-10T21:17:34;23.90;3.70
20438;DHT22;65664;50.380;8.812;2023-06-10T21:20:01;23.80;4.50
20438;DHT22;65664;50.380;8.812;2023-06-10T21:22:30;23.80;4.30
20438;DHT22;65664;50.380;8.812;2023-06-10T21:24:57;23.80;3.90
20438;DHT22;65664;50.380;8.812;2023-06-10T21:27:24;23.80;3.70
20438;DHT22;65664;50.380;8.812;2023-06-10T21:29:51;23.60;4.60
20438;DHT22;65664;50.380;8.812;2023-06-10T21:32:18;23.30;6.10
20438;DHT22;65664;50.380;8.812;2023-06-10T21:34:45;23.50;5.60
20438;DHT22;65664;50.380;8.812;2023-06-10T21:37:11;23.60;4.80
20438;DHT22;65664;50.380;8.812;2023-06-10T21:39:40;23.60;5.00
20438;DHT22;65664;50.380;8.812;2023-06-10T21:42:07;23.60;5.10
20438;DHT22;65664;50.380;8.812;2023-06-10T21:44:34;23.80;4.30
20438;DHT22;65664;50.380;8.812;2023-06-10T21:47:01;23.70;4.20
20438;DHT22;65664;50.380;8.812;2023-06-10T21:49:28;23.80;4.30
20438;DHT22;65664;50.380;8.812;2023-06-10T21:51:55;23.70;4.20
20438;DHT22;65664;50.380;8.812;2023-06-10T21:54:22;23.70;4.50
20438;DHT22;65664;50.380;8.812;2023-06-10T21:56:50;23.60;4.90
20438;DHT22;65664;50.380;8.812;2023-06-10T21:59:18;23.60;5.20
20438;DHT22;65664;50.380;8.812;2023-06-10T22:01:47;23.50;5.90
20438;DHT22;65664;50.380;8.812;2023-06-10T22:04:14;23.60;5.80
20438;DHT22;65664;50.380;8.812;2023-06-10T22:06:43;23.60;6.00
20438;DHT22;65664;50.380;8.812;2023-06-10T22:21:42;22.80;10.60
20438;DHT22;65664;50.380;8.812;2023-06-10T22:24:09;22.80;12.20
20438;DHT22;65664;50.380;8.812;2023-06-10T22:26:36;22.90;12.90
20438;DHT22;65664;50.380;8.812;2023-06-10T22:29:03;23.00;11.80
20438;DHT22;65664;50.380;8.812;2023-06-10T22:31:30;23.10;11.20
20438;DHT22;65664;50.380;8.812;2023-06-10T22:33:57;23.10;11.20
20438;DHT22;65664;50.380;8.812;2023-06-10T22:36:24;23.00;11.40
20438;DHT22;65664;50.380;8.812;2023-06-10T22:38:52;23.10;11.20
20438;DHT22;65664;50.380;8.812;2023-06-10T22:41:19;23.00;11.30
20438;DHT22;65664;50.380;8.812;2023-06-10T22:43:46;23.00;12.10
20438;DHT22;65664;50.380;8.812;2023-06-10T22:46:12;23.00;12.40
20438;DHT22;65664;50.380;8.812;2023-06-10T22:48:40;23.00;13.00
20438;DHT22;65664;50.380;8.812;2023-06-10T22:51:07;22.80;12.90
20438;DHT22;65664;50.380;8.812;2023-06-10T22:53:34;22.80;12.90
20438;DHT22;65664;50.380;8.812;2023-06-10T22:56:02;22.80;12.90
20438;DHT22;65664;50.380;8.812;2023-06-10T22:58:30;22.80;12.90
20438;DHT22;65664;50.380;8.812;2023-06-10T23:00:58;22.80;12.90
20438;DHT22;65664;50.380;8.812;2023-06-10T23:03:28;22.80;12.90
20438;DHT22;65664;50.380;8.812;2023-06-10T23:05:55;22.80;12.90
20438;DHT22;65664;50.380;8.812;2023-06-10T23:08:22;22.70;12.80
20438;DHT22;65664;50.380;8.812;2023-06-10T23:10:49;22.70;12.80
20438;DHT22;65664;50.380;8.812;2023-06-10T23:13:17;22.60;12.70
20438;DHT22;65664;50.380;8.812;2023-06-10T23:15:44;22.60;12.80
20438;DHT22;65664;50.380;8.812;2023-06-10T23:18:10;22.50;13.20
20438;DHT22;65664;50.380;8.812;2023-06-10T23:20:39;22.40;12.60
20438;DHT22;65664;50.380;8.812;2023-06-10T23:23:07;22.40;13.40
20438;DHT22;65664;50.380;8.812;2023-06-10T23:25:34;22.30;13.70
20438;DHT22;65664;50.380;8.812;2023-06-10T23:28:01;22.30;14.00
20438;DHT22;65664;50.380;8.812;2023-06-10T23:30:31;22.20;14.40
20438;DHT22;65664;50.380;8.812;2023-06-10T23:33:01;22.20;14.30
20438;DHT22;65664;50.380;8.812;2023-06-10T23:35:29;22.20;14.30
20438;DHT22;65664;50.380;8.812;2023-06-10T23:37:55;22.20;14.40
20438;DHT22;65664;50.380;8.812;2023-06-10T23:40:22;22.20;14.80
20438;DHT22;65664;50.380;8.812;2023-06-10T23:42:49;22.10;15.10
20438;DHT22;65664;50.380;8.812;2023-06-10T23:45:16;22.00;15.40
20438;DHT22;65664;50.380;8.812;2023-06-10T23:47:44;22.10;15.40
20438;DHT22;65664;50.380;8.812;2023-06-10T23:50:11;22.10;14.80
20438;DHT22;65664;50.380;8.812;2023-06-10T23:52:37;22.20;14.60
20438;DHT22;65664;50.380;8.812;2023-06-10T23:55:05;22.00;15.20
20438;DHT22;65664;50.380;8.812;2023-06-10T23:57:32;22.10;15.00
20438;DHT22;65664;50.380;8.812;2023-06-10T23:59:58;22.10;14.40
